Time;durP1;ratioP1;P1;durP2;ratioP2;P2;SDS_P1;SDS_P2;PMS_P1;PMS_P2;Temp;Humidity;BMP_temperature;BMP_pressure;BME280_temperature;BME280_humidity;BME280_pressure;Samples;Min_cycle;Max_cycle;Signal;HPM_P1;HPM_P2
2023/05/13 00:00:05;;;;;;;0.68;0.30;;;12.40;99.90;;;;;;5038599;28;20700;-76
2023/05/13 00:02:31;;;;;;;2.53;0.50;;;12.30;99.90;;;;;;5036215;28;20078;-76
2023/05/13 00:04:56;;;;;;;0.70;0.30;;;12.20;99.90;;;;;;5047087;28;20353;-77
2023/05/13 00:07:22;;;;;;;0.50;0.30;;;12.10;99.90;;;;;;5037335;28;20061;-76
2023/05/13 00:09:48;;;;;;;0.50;0.28;;;12.10;99.90;;;;;;5040200;28;20530;-76
2023/05/13 00:12:13;;;;;;;0.57;0.20;;;12.10;99.90;;;;;;5035864;28;20033;-76
2023/05/13 00:14:39;;;;;;;0.20;0.10;;;12.10;99.90;;;;;;5034674;28;20029;-76
2023/05/13 00:17:05;;;;;;;0.93;0.32;;;12.00;99.90;;;;;;5037365;28;20025;-76
2023/05/13 00:19:31;;;;;;;2.83;0.45;;;12.00;99.90;;;;;;5045010;28;20034;-76
2023/05/13 00:21:56;;;;;;;1.13;0.40;;;11.90;99.90;;;;;;5043397;28;20028;-76
2023/05/13 00:24:22;;;;;;;1.23;0.40;;;11.90;99.90;;;;;;5037389;28;20032;-76
2023/05/13 00:26:48;;;;;;;2.55;0.63;;;12.00;99.90;;;;;;5034873;28;20415;-76
2023/05/13 00:29:13;;;;;;;3.13;1.17;;;12.00;99.90;;;;;;5035663;28;20104;-76
2023/05/13 00:31:39;;;;;;;1.60;0.85;;;12.00;99.90;;;;;;5034062;28;20029;-76
2023/05/13 00:34:05;;;;;;;2.45;1.05;;;12.00;99.90;;;;;;5036022;28;20037;-76
2023/05/13 00:36:31;;;;;;;1.90;0.93;;;12.00;99.90;;;;;;5037101;28;20025;-76
2023/05/13 00:38:57;;;;;;;2.40;0.73;;;12.00;99.90;;;;;;5034082;28;20046;-76
2023/05/13 00:41:22;;;;;;;2.70;0.73;;;12.00;99.90;;;;;;5033887;28;20090;-76
2023/05/13 00:43:48;;;;;;;2.30;0.88;;;12.00;99.90;;;;;;5037794;28;20496;-76
2023/05/13 00:46:14;;;;;;;2.03;0.80;;;12.00;99.90;;;;;;5033460;28;20025;-76
2023/05/13 00:48:40;;;;;;;1.38;1.02;;;11.90;99.90;;;;;;5032526;28;20029;-76
2023/05/13 00:51:06;;;;;;;2.15;0.50;;;11.90;99.90;;;;;;5036826;28;20517;-76
2023/05/13 00:53:33;;;;;;;1.02;0.50;;;11.80;99.90;;;;;;5041994;28;20079;-76
2023/05/13 00:55:59;;;;;;;2.95;0.45;;;11.80;99.90;;;;;;5037580;28;20033;-76
2023/05/13 00:58:24;;;;;;;1.58;0.82;;;11.80;99.90;;;;;;5044415;28;20029;-76
2023/05/13 01:01:12;;;;;;;1.67;0.47;;;11.90;99.90;;;;;;5032771;28;20395;-76
2023/05/13 01:03:43;;;;;;;1.23;0.45;;;11.90;99.90;;;;;;5033576;28;20387;-76
2023/05/13 01:06:32;;;;;;;3.05;0.40;;;11.80;99.90;;;;;;5033019;28;20087;-76
2023/05/13 01:09:08;;;;;;;1.48;0.52;;;11.80;99.90;;;;;;5039789;28;20033;-76
2023/05/13 01:11:40;;;;;;;1.02;0.45;;;11.90;99.90;;;;;;5038699;28;20040;-76
2023/05/13 01:14:15;;;;;;;2.17;0.73;;;11.70;99.90;;;;;;5038106;28;20025;-76
2023/05/13 01:16:55;;;;;;;1.58;0.70;;;11.70;99.90;;;;;;5035749;28;20030;-76
2023/05/13 01:19:20;;;;;;;1.30;0.50;;;11.60;99.90;;;;;;5037240;28;20030;-76
2023/05/13 01:21:53;;;;;;;2.22;0.73;;;11.60;99.90;;;;;;5035572;28;20055;-76
2023/05/13 01:24:19;;;;;;;2.20;0.70;;;11.60;99.90;;;;;;5037585;28;20479;-76
2023/05/13 01:26:44;;;;;;;2.47;0.63;;;11.60;99.90;;;;;;5042579;28;20048;-76
2023/05/13 01:29:10;;;;;;;1.45;0.40;;;11.50;99.90;;;;;;5036593;28;20083;-76
2023/05/13 01:31:37;;;;;;;3.80;0.82;;;11.50;99.90;;;;;;5036952;28;20100;-76
2023/05/13 01:34:04;;;;;;;2.65;0.73;;;11.50;99.90;;;;;;5037189;28;20033;-76
2023/05/13 01:36:31;;;;;;;1.17;0.50;;;11.50;99.90;;;;;;5039465;28;20022;-76
2023/05/13 01:38:57;;;;;;;1.45;0.80;;;11.50;99.90;;;;;;5036535;28;20041;-76
2023/05/13 01:41:23;;;;;;;1.70;0.40;;;11.50;99.90;;;;;;5041723;28;20025;-76
2023/05/13 01:43:49;;;;;;;1.42;0.50;;;11.60;99.90;;;;;;5034098;28;20021;-76
2023/05/13 01:46:14;;;;;;;0.52;0.30;;;11.60;99.90;;;;;;5037444;28;20092;-76
2023/05/13 01:48:40;;;;;;;2.22;0.90;;;11.70;99.90;;;;;;5042598;28;20090;-76
2023/05/13 01:51:06;;;;;;;0.98;0.43;;;11.70;99.90;;;;;;5042578;28;20103;-76
2023/05/13 01:53:31;;;;;;;2.72;0.60;;;11.70;99.90;;;;;;5036462;28;20069;-75
2023/05/13 01:55:57;;;;;;;2.30;0.55;;;11.70;99.90;;;;;;5037270;28;20033;-75
2023/05/13 01:58:22;;;;;;;3.97;1.42;;;11.70;99.90;;;;;;5037169;28;20384;-75
2023/05/13 02:00:48;;;;;;;1.52;0.43;;;11.80;99.90;;;;;;5036453;28;20450;-75
2023/05/13 02:03:14;;;;;;;1.13;0.43;;;11.70;99.90;;;;;;5046535;28;20025;-75
2023/05/13 02:05:39;;;;;;;12.82;0.70;;;11.70;99.90;;;;;;5038052;28;20056;-75
2023/05/13 02:08:05;;;;;;;1.23;0.45;;;11.70;99.90;;;;;;5040704;28;20044;-75
2023/05/13 02:10:31;;;;;;;1.10;0.50;;;11.50;99.90;;;;;;5035189;28;20025;-75
2023/05/13 02:12:56;;;;;;;3.03;0.50;;;11.50;99.90;;;;;;5040435;28;20059;-75
2023/05/13 02:15:22;;;;;;;3.03;0.40;;;11.50;99.90;;;;;;5035641;28;20083;-75
2023/05/13 02:17:48;;;;;;;1.95;1.00;;;11.50;99.90;;;;;;5037271;28;20034;-75
2023/05/13 02:20:13;;;;;;;1.40;0.70;;;11.60;99.90;;;;;;5036506;28;20032;-75
2023/05/13 02:22:39;;;;;;;2.70;1.23;;;11.70;99.90;;;;;;5040873;28;20037;-75
2023/05/13 02:25:05;;;;;;;3.60;0.57;;;11.80;99.90;;;;;;5040534;28;20029;-75
2023/05/13 02:27:31;;;;;;;1.20;0.60;;;11.80;99.90;;;;;;5033805;28;20443;-75
2023/05/13 02:29:56;;;;;;;1.90;1.15;;;11.70;99.90;;;;;;5036036;28;20079;-75
2023/05/13 02:32:22;;;;;;;3.00;0.80;;;11.70;99.90;;;;;;5036876;28;20534;-75
2023/05/13 02:34:48;;;;;;;2.20;0.60;;;11.60;99.90;;;;;;5036661;28;20044;-75
2023/05/13 02:37:13;;;;;;;9.15;0.90;;;11.60;99.90;;;;;;5033260;28;20163;-75
2023/05/13 02:39:39;;;;;;;3.25;0.60;;;11.50;99.90;;;;;;5036543;28;20042;-75
2023/05/13 02:42:05;;;;;;;2.95;0.90;;;11.50;99.90;;;;;;5040906;28;20071;-75
2023/05/13 02:44:30;;;;;;;1.45;0.40;;;11.40;99.90;;;;;;5046302;28;20478;-75
2023/05/13 02:46:56;;;;;;;2.60;1.00;;;11.20;99.90;;;;;;5038078;28;20103;-75
2023/05/13 02:49:21;;;;;;;2.22;1.00;;;11.30;99.90;;;;;;5043397;28;20112;-75
2023/05/13 02:51:47;;;;;;;0.82;0.50;;;11.30;99.90;;;;;;5034759;28;20037;-75
2023/05/13 02:54:13;;;;;;;1.90;1.00;;;11.40;99.90;;;;;;5035067;28;20506;-75
2023/05/13 02:56:38;;;;;;;2.42;0.60;;;11.30;99.90;;;;;;5040557;28;20395;-75
2023/05/13 02:59:04;;;;;;;1.27;0.50;;;11.40;99.90;;;;;;5037768;28;20472;-75
2023/05/13 03:01:30;;;;;;;0.80;0.40;;;11.30;99.90;;;;;;5034694;28;20033;-76
2023/05/13 03:03:55;;;;;;;1.35;0.80;;;11.40;99.90;;;;;;5035136;28;20597;-75
2023/05/13 03:06:21;;;;;;;1.98;0.70;;;11.60;99.90;;;;;;5027713;28;20446;-75
2023/05/13 03:08:46;;;;;;;0.32;0.28;;;11.60;99.90;;;;;;5031139;28;20029;-75
2023/05/13 03:11:12;;;;;;;3.47;0.30;;;11.50;99.90;;;;;;5031319;28;20026;-75
2023/05/13 03:13:38;;;;;;;2.15;0.50;;;11.60;99.90;;;;;;5039279;28;20432;-76
2023/05/13 03:16:03;;;;;;;2.45;0.73;;;11.60;99.90;;;;;;5030739;28;20135;-75
2023/05/13 03:18:31;;;;;;;1.98;0.60;;;11.40;99.90;;;;;;5033069;28;20041;-75
2023/05/13 03:20:57;;;;;;;4.47;0.70;;;11.40;99.90;;;;;;5032537;28;20075;-75
2023/05/13 03:23:22;;;;;;;1.33;0.52;;;11.40;99.90;;;;;;5038530;28;20028;-75
2023/05/13 03:25:48;;;;;;;2.53;0.70;;;11.50;99.90;;;;;;5029826;28;20123;-75
2023/05/13 03:28:14;;;;;;;1.00;0.38;;;11.50;99.90;;;;;;5032142;28;20030;-75
2023/05/13 03:30:39;;;;;;;1.17;0.25;;;11.60;99.90;;;;;;5030064;28;20636;-75
2023/05/13 03:33:05;;;;;;;1.00;0.50;;;11.70;99.90;;;;;;5035641;28;20030;-75
2023/05/13 03:35:31;;;;;;;2.08;0.40;;;11.70;99.90;;;;;;5037214;28;20072;-75
2023/05/13 03:37:56;;;;;;;1.92;0.75;;;11.70;99.90;;;;;;5030817;28;20025;-75
2023/05/13 03:40:22;;;;;;;19.50;1.15;;;11.70;99.90;;;;;;5034544;28;20044;-75
2023/05/13 03:42:48;;;;;;;2.20;0.77;;;11.60;99.90;;;;;;5031282;28;20029;-75
2023/05/13 03:45:13;;;;;;;1.15;0.60;;;11.70;99.90;;;;;;5029756;28;20037;-75
2023/05/13 03:47:39;;;;;;;1.77;0.70;;;11.70;99.90;;;;;;5037036;28;20124;-75
2023/05/13 03:50:05;;;;;;;1.25;0.57;;;11.70;99.90;;;;;;5032844;28;20057;-75
2023/05/13 03:52:31;;;;;;;2.83;0.88;;;11.50;99.90;;;;;;5036654;28;20025;-75
2023/05/13 03:54:56;;;;;;;1.98;0.73;;;11.60;99.90;;;;;;5028500;28;20026;-75
2023/05/13 03:57:22;;;;;;;1.75;0.50;;;11.50;99.90;;;;;;5032252;28;20427;-75
2023/05/13 03:59:48;;;;;;;1.73;0.60;;;11.60;99.90;;;;;;5030094;28;20084;-75
2023/05/13 04:02:13;;;;;;;2.75;0.70;;;11.60;99.90;;;;;;5029969;28;20041;-75
2023/05/13 04:04:39;;;;;;;0.82;0.50;;;11.50;99.90;;;;;;5029718;28;20029;-75
2023/05/13 04:07:04;;;;;;;1.10;0.52;;;11.60;99.90;;;;;;5030352;28;20043;-75
2023/05/13 04:09:30;;;;;;;2.70;0.57;;;11.60;99.90;;;;;;5034940;28;20112;-75
2023/05/13 04:11:56;;;;;;;2.00;0.52;;;11.50;99.90;;;;;;5031121;28;20033;-75
2023/05/13 04:14:21;;;;;;;1.80;0.70;;;11.50;99.90;;;;;;5027091;28;20029;-75
2023/05/13 04:16:47;;;;;;;1.65;0.63;;;11.50;99.90;;;;;;5028562;28;20029;-75
2023/05/13 04:19:13;;;;;;;8.82;0.88;;;11.50;99.90;;;;;;5028813;28;20061;-75
2023/05/13 04:21:38;;;;;;;1.63;0.70;;;11.50;99.90;;;;;;5027525;28;20514;-75
2023/05/13 04:24:05;;;;;;;4.30;0.80;;;11.50;99.90;;;;;;5039096;28;20032;-75
2023/05/13 04:26:31;;;;;;;0.98;0.52;;;11.50;99.90;;;;;;5025644;28;20261;-75
2023/05/13 04:28:56;;;;;;;2.95;0.60;;;11.50;99.90;;;;;;5031471;28;21013;-75
2023/05/13 04:31:22;;;;;;;2.28;1.00;;;11.60;99.90;;;;;;5035766;28;20498;-75
2023/05/13 04:33:48;;;;;;;4.93;1.10;;;11.70;99.90;;;;;;5030740;28;20056;-75
2023/05/13 04:36:13;;;;;;;5.20;1.45;;;11.70;99.90;;;;;;5027319;28;20025;-75
2023/05/13 04:38:39;;;;;;;10.45;1.40;;;11.70;99.90;;;;;;5032540;28;20073;-75
2023/05/13 04:41:04;;;;;;;41.83;4.47;;;11.60;99.90;;;;;;5028745;28;20057;-75
2023/05/13 04:43:31;;;;;;;19.80;3.47;;;11.60;99.90;;;;;;5035674;28;20547;-75
2023/05/13 04:45:56;;;;;;;15.75;1.70;;;11.60;99.90;;;;;;5029218;28;20025;-75
2023/05/13 04:48:22;;;;;;;4.22;0.93;;;11.60;99.90;;;;;;5029016;28;20025;-75
2023/05/13 04:50:49;;;;;;;3.13;1.02;;;11.70;99.90;;;;;;5030445;28;20124;-75
2023/05/13 04:53:15;;;;;;;1.33;0.70;;;11.60;99.90;;;;;;5029859;28;20068;-77
2023/05/13 04:55:41;;;;;;;3.55;1.00;;;11.70;99.90;;;;;;5027296;28;20061;-77
2023/05/13 04:58:06;;;;;;;3.58;0.90;;;11.70;99.90;;;;;;5032414;28;20025;-77
2023/05/13 05:00:32;;;;;;;3.58;2.03;;;11.70;99.90;;;;;;5038423;28;20130;-77
2023/05/13 05:02:58;;;;;;;7.05;5.85;;;11.70;99.90;;;;;;5028738;28;20451;-77
2023/05/13 05:05:23;;;;;;;18.10;10.75;;;11.80;99.90;;;;;;5034054;28;20059;-77
2023/05/13 05:07:49;;;;;;;7.57;3.85;;;11.80;99.90;;;;;;5036908;28;20074;-77
2023/05/13 05:10:15;;;;;;;2.38;1.50;;;11.70;99.90;;;;;;5031400;28;20514;-77
2023/05/13 05:12:41;;;;;;;2.33;1.10;;;11.60;99.90;;;;;;5033400;28;20099;-77
2023/05/13 05:15:14;;;;;;;6.43;1.45;;;11.70;99.90;;;;;;5031004;28;20049;-77
2023/05/13 05:17:41;;;;;;;2.47;1.13;;;11.70;99.90;;;;;;5036924;28;20090;-77
2023/05/13 05:20:07;;;;;;;2.63;1.25;;;11.80;99.90;;;;;;5027802;28;20029;-77
2023/05/13 05:22:34;;;;;;;3.03;1.65;;;11.80;99.90;;;;;;5030316;28;20411;-77
2023/05/13 05:24:59;;;;;;;5.72;2.78;;;11.80;99.90;;;;;;5033589;28;20029;-77
2023/05/13 05:27:25;;;;;;;8.52;3.22;;;11.90;99.90;;;;;;5033119;28;20098;-77
2023/05/13 05:29:51;;;;;;;3.50;2.00;;;11.90;99.90;;;;;;5035600;28;20084;-77
2023/05/13 05:32:16;;;;;;;126.28;73.40;;;12.00;99.90;;;;;;5037245;28;20070;-77
2023/05/13 05:34:42;;;;;;;22.02;10.35;;;12.00;99.90;;;;;;5036411;28;20843;-77
2023/05/13 05:37:07;;;;;;;11.70;3.67;;;12.00;99.90;;;;;;5026760;28;20051;-77
2023/05/13 05:39:34;;;;;;;4.35;1.58;;;12.10;99.90;;;;;;5028773;28;20112;-77
2023/05/13 05:41:59;;;;;;;9.85;4.10;;;12.20;99.90;;;;;;5038080;28;20029;-76
2023/05/13 05:44:25;;;;;;;5.93;2.75;;;12.20;99.90;;;;;;5035573;28;20032;-77
2023/05/13 05:46:51;;;;;;;4.07;2.45;;;12.30;99.90;;;;;;5029167;28;20129;-77
2023/05/13 05:49:17;;;;;;;2.72;1.30;;;12.40;99.90;;;;;;5031076;28;20042;-77
2023/05/13 05:51:43;;;;;;;5.82;3.55;;;12.50;99.90;;;;;;5028149;28;20041;-77
2023/05/13 05:54:08;;;;;;;4.00;2.00;;;12.50;99.90;;;;;;5036662;28;20056;-77
2023/05/13 05:56:34;;;;;;;6.72;1.80;;;12.60;99.90;;;;;;5029757;28;20592;-77
2023/05/13 05:59:00;;;;;;;13.15;7.70;;;12.60;99.90;;;;;;5041380;28;20432;-77
2023/05/13 06:01:32;;;;;;;4.22;2.42;;;12.60;99.90;;;;;;5036727;28;20393;-77
2023/05/13 06:03:57;;;;;;;4.07;2.38;;;12.70;99.90;;;;;;5038376;28;20025;-77
2023/05/13 06:06:23;;;;;;;15.25;9.90;;;12.70;99.90;;;;;;5036826;28;20597;-77
2023/05/13 06:08:48;;;;;;;6.80;2.15;;;12.70;99.90;;;;;;5029623;28;20037;-77
2023/05/13 06:11:14;;;;;;;5.68;1.52;;;12.70;99.90;;;;;;5036692;28;20075;-77
2023/05/13 06:13:40;;;;;;;24.30;17.23;;;12.80;99.90;;;;;;5032954;28;20027;-77
2023/05/13 06:16:06;;;;;;;33.40;23.52;;;12.90;99.90;;;;;;5027885;28;20033;-78
2023/05/13 06:18:31;;;;;;;113.35;76.53;;;13.00;99.90;;;;;;5032030;28;20602;-77
2023/05/13 06:20:57;;;;;;;62.58;45.85;;;12.80;99.90;;;;;;5030097;28;20132;-81
2023/05/13 06:23:22;;;;;;;6.57;4.10;;;12.70;99.90;;;;;;5031881;28;20033;-80
2023/05/13 06:25:48;;;;;;;5.82;3.13;;;12.80;99.90;;;;;;5031819;28;20479;-79
2023/05/13 06:28:14;;;;;;;3.83;1.50;;;12.90;99.90;;;;;;5036256;28;20033;-79
2023/05/13 06:30:39;;;;;;;5.00;2.75;;;13.00;99.90;;;;;;5037692;28;20364;-80
2023/05/13 06:33:07;;;;;;;5.82;2.47;;;13.00;99.90;;;;;;5033337;28;20411;-80
2023/05/13 06:35:32;;;;;;;7.50;2.90;;;13.00;99.90;;;;;;5035996;28;20041;-80
2023/05/13 06:37:58;;;;;;;4.88;2.10;;;13.00;99.90;;;;;;5033181;28;20029;-80
2023/05/13 06:40:24;;;;;;;4.13;1.50;;;13.10;99.90;;;;;;5032254;28;20372;-79
2023/05/13 06:42:49;;;;;;;3.92;1.75;;;12.90;99.90;;;;;;5031878;28;20037;-79
2023/05/13 06:45:15;;;;;;;2.92;1.38;;;13.10;99.90;;;;;;5030389;28;20825;-80
2023/05/13 06:47:40;;;;;;;5.63;1.50;;;13.20;99.90;;;;;;5029701;28;20120;-79
2023/05/13 06:50:06;;;;;;;3.58;1.40;;;13.40;99.90;;;;;;5030518;28;20041;-79
2023/05/13 06:52:32;;;;;;;3.35;1.38;;;13.40;99.90;;;;;;5027934;28;20041;-79
2023/05/13 06:54:58;;;;;;;2.95;0.73;;;13.40;99.90;;;;;;5028509;28;20108;-79
2023/05/13 06:57:25;;;;;;;4.57;1.48;;;13.30;99.90;;;;;;5025144;28;20026;-80
2023/05/13 06:59:50;;;;;;;2.22;0.98;;;13.40;99.90;;;;;;5028982;28;20116;-79
2023/05/13 07:02:16;;;;;;;3.50;1.33;;;13.30;99.90;;;;;;5034386;28;20115;-80
2023/05/13 07:04:42;;;;;;;2.13;1.00;;;13.20;99.90;;;;;;5031538;28;20063;-79
2023/05/13 07:07:07;;;;;;;2.70;1.10;;;13.30;99.90;;;;;;5028088;28;20068;-80
2023/05/13 07:09:33;;;;;;;2.72;1.52;;;13.40;99.90;;;;;;5031535;28;20033;-79
2023/05/13 07:11:59;;;;;;;3.90;1.20;;;13.40;99.90;;;;;;5032646;28;20025;-79
2023/05/13 07:14:25;;;;;;;3.47;1.25;;;13.50;99.90;;;;;;5025761;28;20112;-79
2023/05/13 07:16:50;;;;;;;2.88;1.20;;;13.50;99.90;;;;;;5029680;28;20383;-79
2023/05/13 07:19:16;;;;;;;3.65;1.50;;;13.60;99.90;;;;;;5024308;28;20041;-79
2023/05/13 07:21:41;;;;;;;2.47;1.23;;;13.40;99.90;;;;;;5025278;28;20044;-78
2023/05/13 07:24:08;;;;;;;4.35;1.58;;;13.40;99.90;;;;;;5029084;28;20118;-78
2023/05/13 07:26:33;;;;;;;4.30;1.70;;;13.50;99.90;;;;;;5028709;28;20088;-78
2023/05/13 07:29:00;;;;;;;2.92;1.38;;;13.60;99.90;;;;;;5028285;28;20534;-78
2023/05/13 07:31:26;;;;;;;2.78;1.58;;;13.70;99.90;;;;;;5028353;28;20025;-78
2023/05/13 07:33:52;;;;;;;4.38;1.50;;;13.60;99.90;;;;;;5026397;28;20024;-78
2023/05/13 07:36:17;;;;;;;2.95;1.67;;;13.60;99.90;;;;;;5028306;28;20153;-78
2023/05/13 07:38:43;;;;;;;3.35;1.55;;;13.90;99.90;;;;;;5030281;28;20049;-77
2023/05/13 07:41:09;;;;;;;1.70;1.05;;;14.00;99.90;;;;;;5030341;28;20017;-77
2023/05/13 07:43:34;;;;;;;4.15;1.55;;;14.80;99.90;;;;;;5031200;28;20025;-78
2023/05/13 07:46:02;;;;;;;4.72;1.40;;;16.10;99.90;;;;;;5039221;28;20033;-78
2023/05/13 07:48:27;;;;;;;2.63;1.10;;;17.90;99.90;;;;;;5038612;28;20488;-78
2023/05/13 07:50:53;;;;;;;2.45;1.10;;;18.70;99.90;;;;;;5044219;28;20100;-78
2023/05/13 07:53:19;;;;;;;1.83;1.10;;;18.40;99.90;;;;;;5044775;28;20056;-78
2023/05/13 07:55:44;;;;;;;3.17;1.10;;;17.60;99.90;;;;;;5035562;28;20538;-78
2023/05/13 07:58:10;;;;;;;3.13;1.08;;;16.30;99.90;;;;;;5038157;28;20127;-77
2023/05/13 08:00:36;;;;;;;3.67;1.17;;;15.40;99.90;;;;;;5033372;28;20119;-78
2023/05/13 08:03:01;;;;;;;5.60;1.40;;;15.20;99.90;;;;;;5035932;28;20040;-78
2023/05/13 08:05:27;;;;;;;1.58;0.90;;;15.30;99.90;;;;;;5041725;28;20029;-78
2023/05/13 08:07:53;;;;;;;3.95;1.17;;;15.20;99.90;;;;;;5039000;28;20949;-78
2023/05/13 08:10:18;;;;;;;2.47;0.93;;;15.40;99.90;;;;;;5032955;28;20402;-78
2023/05/13 08:12:49;;;;;;;2.88;1.10;;;15.10;99.90;;;;;;5043453;28;20041;-78
2023/05/13 08:15:15;;;;;;;4.57;2.00;;;15.40;99.90;;;;;;5040141;28;20025;-78
2023/05/13 08:17:41;;;;;;;2.67;1.00;;;15.50;99.90;;;;;;5037905;28;20021;-78
2023/05/13 08:20:07;;;;;;;1.63;1.00;;;15.10;99.90;;;;;;5042714;28;20041;-78
2023/05/13 08:22:33;;;;;;;2.03;1.08;;;15.00;99.90;;;;;;5041966;28;20121;-78
2023/05/13 08:24:59;;;;;;;2.60;1.00;;;14.90;99.90;;;;;;5038654;28;20410;-77
2023/05/13 08:27:25;;;;;;;1.95;0.80;;;15.00;99.90;;;;;;5041968;28;20037;-78
2023/05/13 08:29:51;;;;;;;1.38;0.70;;;15.00;99.90;;;;;;5041636;28;20624;-78
2023/05/13 08:32:17;;;;;;;2.17;1.08;;;15.30;99.90;;;;;;5043506;28;20035;-78
2023/05/13 08:34:43;;;;;;;3.72;1.40;;;15.50;99.90;;;;;;5042112;28;20124;-78
2023/05/13 08:37:09;;;;;;;1.83;1.00;;;15.60;99.90;;;;;;5041637;28;20112;-78
2023/05/13 08:39:34;;;;;;;3.40;1.00;;;15.60;99.90;;;;;;5036213;28;20178;-78
2023/05/13 08:42:02;;;;;;;3.75;1.42;;;15.30;99.90;;;;;;5043865;28;20041;-78
2023/05/13 08:44:30;;;;;;;3.45;1.17;;;15.20;99.90;;;;;;5042636;28;20021;-77
2023/05/13 08:47:19;;;;;;;4.50;1.00;;;15.30;99.90;;;;;;5042981;28;20124;-78
2023/05/13 08:49:46;;;;;;;2.17;1.00;;;15.10;99.90;;;;;;5021091;28;20735;-78
2023/05/13 08:52:11;;;;;;;4.03;1.25;;;15.10;99.90;;;;;;5041036;28;20573;-77
2023/05/13 08:54:37;;;;;;;3.03;1.33;;;15.00;99.90;;;;;;5034709;28;20037;-77
2023/05/13 08:57:03;;;;;;;3.95;1.30;;;15.20;99.90;;;;;;5035251;28;20025;-78
2023/05/13 08:59:29;;;;;;;3.70;1.65;;;15.20;99.90;;;;;;5039874;28;20087;-77
2023/05/13 09:01:55;;;;;;;2.78;1.00;;;15.10;99.90;;;;;;5040758;28;20033;-78
2023/05/13 09:04:21;;;;;;;2.28;0.85;;;15.00;99.90;;;;;;5042914;28;20061;-77
2023/05/13 09:06:49;;;;;;;4.35;1.15;;;15.00;99.90;;;;;;5040480;28;20084;-78
2023/05/13 09:09:15;;;;;;;3.22;1.73;;;15.00;99.90;;;;;;5028622;28;20069;-77
2023/05/13 09:11:41;;;;;;;4.30;1.35;;;14.90;99.90;;;;;;5034741;28;20093;-79
2023/05/13 09:14:10;;;;;;;2.95;1.10;;;14.80;99.90;;;;;;5028109;28;21125;-77
2023/05/13 09:16:36;;;;;;;5.15;1.10;;;14.70;99.90;;;;;;5031243;28;20033;-77
2023/05/13 09:19:06;;;;;;;3.15;1.20;;;14.70;99.90;;;;;;5031112;28;20022;-77
2023/05/13 09:21:36;;;;;;;1.90;1.17;;;14.80;99.90;;;;;;5028117;28;20490;-74
2023/05/13 09:24:06;;;;;;;4.63;1.23;;;15.00;99.90;;;;;;5028257;28;20071;-77
2023/05/13 09:26:32;;;;;;;4.03;1.23;;;15.20;99.90;;;;;;5032969;28;20036;-77
2023/05/13 09:29:19;;;;;;;2.55;1.00;;;15.00;99.90;;;;;;5034392;28;20028;-77
2023/05/13 09:31:47;;;;;;;1.52;0.80;;;14.90;99.90;;;;;;5035340;28;20048;-77
2023/05/13 09:34:14;;;;;;;1.48;0.65;;;15.00;99.90;;;;;;5040147;28;20037;-77
2023/05/13 09:36:40;;;;;;;1.75;0.88;;;14.60;99.90;;;;;;5033816;28;20441;-77
2023/05/13 09:39:06;;;;;;;1.20;0.70;;;14.80;99.90;;;;;;5036693;28;20045;-77
2023/05/13 09:41:33;;;;;;;2.42;0.70;;;15.00;99.90;;;;;;5033131;28;20034;-77
2023/05/13 09:44:01;;;;;;;1.83;0.85;;;15.10;99.90;;;;;;5032998;28;20028;-77
2023/05/13 09:46:29;;;;;;;0.90;0.47;;;15.30;99.90;;;;;;5036277;28;20072;-77
2023/05/13 09:48:57;;;;;;;2.17;0.57;;;15.50;99.90;;;;;;5038443;28;20086;-76
2023/05/13 09:51:27;;;;;;;1.80;0.95;;;15.50;99.90;;;;;;5037461;28;20056;-76
2023/05/13 09:53:54;;;;;;;1.77;1.05;;;15.60;99.90;;;;;;5031604;28;20076;-76
2023/05/13 09:56:22;;;;;;;2.28;0.88;;;15.60;99.90;;;;;;5037924;28;20021;-77
2023/05/13 09:58:52;;;;;;;2.20;0.60;;;15.60;99.90;;;;;;5034058;28;20091;-76
2023/05/13 10:01:20;;;;;;;2.20;0.75;;;15.90;99.90;;;;;;5035215;28;20159;-76
2023/05/13 10:03:47;;;;;;;2.80;1.10;;;16.00;99.90;;;;;;5038001;28;20455;-77
2023/05/13 10:06:16;;;;;;;2.45;0.47;;;16.30;99.90;;;;;;5034393;28;20025;-77
2023/05/13 10:08:45;;;;;;;1.25;0.60;;;16.70;99.90;;;;;;5029245;28;20079;-76
2023/05/13 10:11:14;;;;;;;2.38;0.60;;;17.00;99.90;;;;;;5036259;28;20053;-76
2023/05/13 10:13:42;;;;;;;7.53;1.30;;;17.00;99.90;;;;;;5035209;28;20064;-77
2023/05/13 10:16:08;;;;;;;1.20;0.52;;;17.30;99.90;;;;;;5033939;28;20032;-76
2023/05/13 10:18:34;;;;;;;1.70;0.70;;;17.00;99.90;;;;;;5034995;28;20482;-76
2023/05/13 10:21:02;;;;;;;1.48;0.50;;;16.90;99.90;;;;;;5033779;28;20053;-77
2023/05/13 10:23:28;;;;;;;2.20;0.70;;;16.80;99.90;;;;;;5036957;28;20087;-76
2023/05/13 10:25:55;;;;;;;1.45;0.55;;;16.70;99.90;;;;;;5036084;28;20434;-77
2023/05/13 10:28:21;;;;;;;0.52;0.30;;;16.70;99.90;;;;;;5037908;28;20025;-77
2023/05/13 10:30:50;;;;;;;0.95;0.17;;;17.10;99.90;;;;;;5036634;28;20044;-76
2023/05/13 10:33:16;;;;;;;0.85;0.47;;;17.30;99.70;;;;;;5030433;28;20025;-76
2023/05/13 10:35:59;;;;;;;3.25;0.40;;;17.30;99.70;;;;;;5029997;28;20371;-76
2023/05/13 10:38:49;;;;;;;0.93;0.30;;;17.70;99.50;;;;;;5029363;28;20030;-76
2023/05/13 10:41:35;;;;;;;1.20;0.30;;;17.70;99.10;;;;;;5036650;28;20041;-76
2023/05/13 10:44:02;;;;;;;1.10;0.40;;;17.70;99.80;;;;;;5031936;28;20037;-76
2023/05/13 10:46:28;;;;;;;1.33;0.60;;;17.90;99.90;;;;;;5026924;28;20096;-77
2023/05/13 10:48:58;;;;;;;1.45;0.77;;;17.90;99.90;;;;;;5034361;28;20036;-76
2023/05/13 10:51:25;;;;;;;0.50;0.20;;;18.00;99.90;;;;;;5033656;28;20037;-77
2023/05/13 10:53:53;;;;;;;4.38;0.43;;;18.40;99.90;;;;;;5039079;28;20021;-77
2023/05/13 10:56:20;;;;;;;1.08;0.40;;;18.30;99.60;;;;;;5029902;28;20065;-76
2023/05/13 10:59:03;;;;;;;1.42;0.85;;;18.50;99.20;;;;;;5031486;28;20033;-77
2023/05/13 11:01:43;;;;;;;2.20;0.60;;;18.50;99.20;;;;;;5034327;28;20122;-76
2023/05/13 11:04:16;;;;;;;0.90;0.45;;;18.60;99.10;;;;;;5040425;28;20024;-76
2023/05/13 11:06:47;;;;;;;0.82;0.35;;;18.90;98.60;;;;;;5034134;28;20083;-77
2023/05/13 11:09:22;;;;;;;0.25;0.20;;;19.00;99.00;;;;;;5030797;28;20025;-77
2023/05/13 11:11:57;;;;;;;1.85;0.20;;;19.10;97.60;;;;;;5029291;28;20045;-76
2023/05/13 11:14:29;;;;;;;1.25;0.50;;;19.40;97.20;;;;;;5029030;28;20641;-77
2023/05/13 11:17:17;;;;;;;0.93;0.30;;;19.30;97.10;;;;;;5032109;28;20029;-76
2023/05/13 11:19:49;;;;;;;0.52;0.20;;;19.30;97.50;;;;;;5024471;28;20487;-77
2023/05/13 11:22:19;;;;;;;1.08;0.50;;;19.20;96.70;;;;;;5035582;28;20125;-76
2023/05/13 11:25:06;;;;;;;0.82;0.30;;;19.10;96.80;;;;;;5029606;28;20032;-77
2023/05/13 11:27:37;;;;;;;0.40;0.30;;;19.70;97.10;;;;;;5034185;28;20049;-76
2023/05/13 11:30:06;;;;;;;0.55;0.20;;;19.40;95.10;;;;;;5027693;28;20483;-77
2023/05/13 11:32:50;;;;;;;0.57;0.30;;;18.70;94.40;;;;;;5039548;28;20241;-76
2023/05/13 11:35:26;;;;;;;1.85;0.45;;;19.10;96.10;;;;;;5030406;28;20049;-76
2023/05/13 11:37:55;;;;;;;0.68;0.30;;;18.70;96.00;;;;;;5029876;28;20033;-76
2023/05/13 11:40:22;;;;;;;2.25;0.40;;;18.60;95.20;;;;;;5030735;28;20383;-76
2023/05/13 11:42:48;;;;;;;0.77;0.30;;;19.00;96.70;;;;;;5036779;28;20040;-77
2023/05/13 11:45:16;;;;;;;0.70;0.30;;;19.10;95.40;;;;;;5032938;28;20028;-77
2023/05/13 11:47:42;;;;;;;0.43;0.28;;;19.50;95.30;;;;;;5032018;28;20045;-77
2023/05/13 11:50:21;;;;;;;1.48;0.40;;;19.30;96.20;;;;;;5028534;28;20474;-76
2023/05/13 11:52:55;;;;;;;0.20;0.20;;;19.80;95.90;;;;;;5034628;28;20124;-77
2023/05/13 11:55:25;;;;;;;0.55;0.25;;;19.90;94.90;;;;;;5036200;28;20036;-76
2023/05/13 11:57:51;;;;;;;0.57;0.30;;;20.20;95.00;;;;;;5031584;28;20044;-76
2023/05/13 12:00:16;;;;;;;1.30;0.50;;;20.20;95.10;;;;;;5026440;28;20048;-77
2023/05/13 12:02:44;;;;;;;1.27;0.40;;;19.90;94.80;;;;;;5036665;28;20041;-76
2023/05/13 12:05:10;;;;;;;0.85;0.38;;;19.60;95.70;;;;;;5034364;28;20637;-77
2023/05/13 12:07:38;;;;;;;2.78;0.40;;;19.30;96.10;;;;;;5030341;28;20099;-76
2023/05/13 12:10:05;;;;;;;0.50;0.38;;;18.90;96.40;;;;;;5027047;28;20061;-77
2023/05/13 12:12:33;;;;;;;2.28;0.65;;;18.80;96.40;;;;;;5028567;28;20086;-77
2023/05/13 12:15:02;;;;;;;1.20;0.40;;;18.60;96.50;;;;;;5028875;28;20037;-76
2023/05/13 12:17:29;;;;;;;1.70;0.32;;;18.50;96.20;;;;;;5030823;28;20053;-77
2023/05/13 12:20:06;;;;;;;1.58;0.65;;;18.80;95.80;;;;;;5029440;28;20033;-76
2023/05/13 12:22:33;;;;;;;0.47;0.28;;;19.00;95.70;;;;;;5031342;28;20095;-76
2023/05/13 12:25:01;;;;;;;0.40;0.22;;;19.50;95.80;;;;;;5033148;28;20036;-77
2023/05/13 12:27:27;;;;;;;1.75;0.43;;;19.10;96.00;;;;;;5032090;28;20083;-76
2023/05/13 12:29:56;;;;;;;0.20;0.10;;;19.00;96.30;;;;;;5040134;28;20490;-77
2023/05/13 12:32:24;;;;;;;0.75;0.32;;;18.40;96.60;;;;;;5034603;28;20106;-77
2023/05/13 12:34:50;;;;;;;0.45;0.15;;;18.40;96.70;;;;;;5031467;28;20075;-76
2023/05/13 12:37:16;;;;;;;1.40;0.30;;;18.40;97.10;;;;;;5034743;28;20032;-77
2023/05/13 12:39:43;;;;;;;0.60;0.30;;;18.20;96.20;;;;;;5030439;28;20122;-77
2023/05/13 12:42:16;;;;;;;0.63;0.20;;;18.00;96.30;;;;;;5034237;28;20753;-76
2023/05/13 12:44:43;;;;;;;0.35;0.13;;;18.10;96.60;;;;;;5029067;28;20029;-76